< < Back
Terminal Aerodrome Forecast


Current Version              Previous Versions:   1  2  3  4  5  6  7  8  9  

Terminal Aerodrome Forecast

422
FTUS42 KCHS 172200 AAA
TAFSAV
TAF AMD
KSAV 172228Z 1722/1818 16008KT P6SM -TSRA SCT025 BKN040CB
      TEMPO 1722/1724 VRB12G20KT 4SM TSRA BKN020CB
     FM180100 VRB03KT P6SM SCT025 SCT060 BKN200
     FM180900 00000KT 4SM BR SCT009 BKN020
     FM181300 05005KT P6SM SCT035=

Latest METAR

669
SAUS80 KWBC 180300 RRC
MTRSAV
METAR KSAV 180253Z 00000KT 10SM FEW035 BKN070 BKN150 24/22 A2991 RMK AO2
SLP127 OCNL LTG DSNT N CB DSNT N 60021 T02390222 53006


USA.gov is the U.S. government's official web portal to all federal, state and local government web resources and services.